Terminal Aerodrome Forecast
Issued by NWS Twin Cities, MN

Home | Current Version | Previous Version | Text Only | Print | Product List | Glossary Off
Versions: 1 2 3 4 5 6 7 8 9 10 11 12 13 14 15 16 17 18 19 20 21 22 23 24 25 26

000
FTUS43 KMPX 040701 AAA
TAFEAU
TAF AMD
KEAU 040701Z 0407/0506 09003KT P6SM BKN025
     FM040930 10006KT 2SM BR SCT004
      TEMPO 0410/0412 3/4SM BR SCT004
     FM041400 13007KT P6SM SCT100=

USA.gov is the U.S. government's official web portal to all federal, state and local government web resources and services.